Time;durP1;ratioP1;P1;durP2;ratioP2;P2;SDS_P1;SDS_P2;PMS_P1;PMS_P2;Temp;Humidity;BMP_temperature;BMP_pressure;BME280_temperature;BME280_humidity;BME280_pressure;Samples;Min_cycle;Max_cycle;Signal;HPM_P1;HPM_P2
2022/08/11 00:02:25;;;;;;;6.45;4.15;;;;;;;16.69;61.82;101188.41;5030661;28;20113;-79
2022/08/11 00:04:51;;;;;;;6.43;3.92;;;;;;;16.62;61.76;101183.88;5015287;28;20044;-78
2022/08/11 00:07:17;;;;;;;6.78;4.50;;;;;;;16.58;62.29;101186.22;5030391;28;20109;-80
2022/08/11 00:09:42;;;;;;;8.25;4.32;;;;;;;16.51;62.52;101190.31;5015192;28;20387;-77
2022/08/11 00:12:14;;;;;;;8.32;4.68;;;;;;;16.51;62.61;101193.22;5030319;28;20200;-78
2022/08/11 00:14:40;;;;;;;5.07;4.57;;;;;;;16.44;62.73;101178.47;5014038;28;20148;-79
2022/08/11 00:17:08;;;;;;;7.95;5.22;;;;;;;16.50;63.08;101185.09;5014301;28;20026;-79
2022/08/11 00:19:37;;;;;;;7.78;4.80;;;;;;;16.48;62.97;101181.91;5015477;28;20052;-80
2022/08/11 00:22:04;;;;;;;5.70;4.47;;;;;;;16.47;63.16;101194.75;4997746;28;20029;-79
2022/08/11 00:24:33;;;;;;;9.15;4.45;;;;;;;16.43;63.41;101183.47;5013852;28;20026;-79
2022/08/11 00:26:58;;;;;;;8.13;3.83;;;;;;;16.42;63.53;101186.84;5013599;28;20274;-78
2022/08/11 00:29:23;;;;;;;10.50;4.30;;;;;;;16.35;63.59;101181.56;5013763;28;20065;-80
2022/08/11 00:31:54;;;;;;;7.00;4.53;;;;;;;16.31;63.76;101178.09;5013338;28;20459;-79
2022/08/11 00:34:21;;;;;;;5.38;4.18;;;;;;;16.27;63.92;101177.53;5030108;28;20048;-78
2022/08/11 00:37:00;;;;;;;10.13;5.30;;;;;;;16.22;64.17;101178.28;5013646;28;20037;-80
2022/08/11 00:39:26;;;;;;;7.93;4.22;;;;;;;16.13;64.50;101177.16;5030148;28;20026;-80
2022/08/11 00:42:10;;;;;;;6.80;4.47;;;;;;;16.08;64.86;101177.13;5041944;28;20080;-78
2022/08/11 00:44:50;;;;;;;7.50;4.72;;;;;;;16.01;65.04;101171.78;5015728;28;20033;-78
2022/08/11 00:47:23;;;;;;;6.72;4.70;;;;;;;15.98;65.13;101176.50;5018144;28;20029;-78
2022/08/11 00:50:07;;;;;;;6.15;4.30;;;;;;;15.93;65.34;101183.00;5001154;28;20398;-79
2022/08/11 00:53:02;;;;;;;7.78;5.03;;;;;;;15.86;65.40;101177.69;5015165;28;20025;-79
2022/08/11 00:55:35;;;;;;;5.60;4.65;;;;;;;15.80;65.64;101178.94;5013576;28;20029;-79
2022/08/11 00:58:32;;;;;;;8.32;4.15;;;;;;;15.76;65.96;101179.16;5030213;28;20026;-78
2022/08/11 01:01:07;;;;;;;7.05;4.82;;;;;;;15.71;66.16;101179.91;5014738;28;20053;-78
2022/08/11 01:04:07;;;;;;;9.60;5.35;;;;;;;15.66;66.12;101181.41;5002249;28;20072;-78
2022/08/11 01:06:32;;;;;;;6.93;4.75;;;;;;;15.60;66.24;101179.78;5017383;28;20029;-77
2022/08/11 01:09:13;;;;;;;6.82;4.55;;;;;;;15.58;66.31;101176.56;5015944;28;20026;-78
2022/08/11 01:11:41;;;;;;;7.28;4.18;;;;;;;15.53;66.44;101177.31;5014869;28;20104;-78
2022/08/11 01:14:25;;;;;;;7.00;4.70;;;;;;;15.52;66.56;101181.47;5014272;28;20026;-78
2022/08/11 01:17:24;;;;;;;5.90;4.22;;;;;;;15.48;66.71;101178.81;5014232;28;20029;-76
2022/08/11 01:19:54;;;;;;;6.10;4.32;;;;;;;15.46;66.64;101177.75;5012775;28;20434;-78
2022/08/11 01:22:51;;;;;;;6.68;3.80;;;;;;;15.44;66.82;101178.25;5014263;28;20040;-78
2022/08/11 01:25:28;;;;;;;10.48;5.13;;;;;;;15.39;66.76;101178.19;4988730;28;20037;-78
2022/08/11 01:28:15;;;;;;;5.90;4.80;;;;;;;15.35;67.09;101180.50;5013948;28;20026;-77
2022/08/11 01:30:59;;;;;;;7.32;4.40;;;;;;;15.33;67.32;101180.19;5014061;28;20040;-77
2022/08/11 01:34:03;;;;;;;6.90;4.88;;;;;;;15.28;67.18;101179.63;5013856;28;20030;-77
2022/08/11 01:36:34;;;;;;;5.57;4.82;;;;;;;15.25;67.37;101180.66;5013644;28;20026;-77
2022/08/11 01:39:11;;;;;;;6.47;4.82;;;;;;;15.22;67.40;101175.88;5014253;28;20057;-78
2022/08/11 01:44:54;;;;;;;6.78;5.03;;;;;;;15.15;67.51;101179.22;5014051;28;20160;-78
2022/08/11 01:47:55;;;;;;;7.22;4.70;;;;;;;15.11;68.06;101177.84;5014114;28;20030;-78
2022/08/11 01:50:42;;;;;;;6.93;4.80;;;;;;;15.07;67.94;101180.91;5002296;28;20057;-78
2022/08/11 01:53:34;;;;;;;7.50;4.88;;;;;;;15.02;68.12;101178.75;5013645;28;20109;-78
2022/08/11 01:55:59;;;;;;;8.93;5.15;;;;;;;14.98;68.32;101165.88;5013844;28;20414;-77
2022/08/11 01:58:32;;;;;;;8.23;4.53;;;;;;;14.95;68.62;101167.69;5016036;28;20042;-77
2022/08/11 02:01:26;;;;;;;13.82;5.13;;;;;;;14.92;68.93;101176.53;5016274;28;20121;-77
2022/08/11 02:04:24;;;;;;;6.72;4.80;;;;;;;14.87;69.31;101174.38;4999167;28;20055;-77
2022/08/11 02:07:12;;;;;;;6.78;4.70;;;;;;;14.86;69.40;101182.22;4996482;28;20570;-78
2022/08/11 02:09:51;;;;;;;5.60;4.18;;;;;;;14.81;69.22;101166.47;5017339;28;20057;-78
2022/08/11 02:12:36;;;;;;;7.72;4.93;;;;;;;14.78;69.72;101172.41;5015990;28;20142;-78
2022/08/11 02:15:07;;;;;;;8.10;5.53;;;;;;;14.69;69.62;101167.56;5017307;28;20033;-78
2022/08/11 02:17:58;;;;;;;6.10;5.15;;;;;;;14.66;70.29;101173.53;5017151;28;20038;-77
2022/08/11 02:23:59;;;;;;;6.43;4.93;;;;;;;14.62;70.72;101167.22;5030181;28;20452;-77
2022/08/11 02:26:31;;;;;;;7.50;4.93;;;;;;;14.56;70.96;101169.19;5015470;28;20036;-77
2022/08/11 02:29:24;;;;;;;11.02;5.25;;;;;;;14.51;71.33;101170.69;5015736;28;20083;-77
2022/08/11 02:34:55;;;;;;;6.55;5.40;;;;;;;14.48;71.34;101173.78;5016973;28;20040;-77
2022/08/11 02:37:32;;;;;;;5.93;4.90;;;;;;;14.40;71.95;101179.13;5015564;28;20430;-78
2022/08/11 02:39:57;;;;;;;8.95;5.22;;;;;;;14.33;72.02;101173.78;5016963;28;20486;-78
2022/08/11 02:42:33;;;;;;;11.55;5.03;;;;;;;14.28;71.68;101174.50;5016859;28;20112;-78
2022/08/11 02:45:10;;;;;;;6.65;5.28;;;;;;;14.23;72.00;101167.34;5032148;28;20032;-78
2022/08/11 02:51:19;;;;;;;8.05;4.78;;;;;;;14.10;71.73;101169.75;5017577;28;20091;-77
2022/08/11 02:54:08;;;;;;;7.15;5.30;;;;;;;14.04;71.83;101173.78;5017004;28;20445;-76
2022/08/11 02:56:43;;;;;;;8.80;5.05;;;;;;;14.06;71.91;101169.16;5015332;28;20030;-76
2022/08/11 03:02:36;;;;;;;6.53;4.60;;;;;;;14.07;72.12;101170.75;5016683;28;20490;-78
2022/08/11 03:05:13;;;;;;;5.43;4.03;;;;;;;14.06;71.84;101174.09;5016600;28;20053;-76
2022/08/11 03:08:09;;;;;;;7.53;3.78;;;;;;;14.07;71.90;101185.13;5031295;28;20038;-77
2022/08/11 03:16:58;;;;;;;6.30;4.15;;;;;;;14.07;71.23;101190.06;5016415;28;20041;-77
2022/08/11 03:19:39;;;;;;;8.02;4.53;;;;;;;14.11;70.91;101182.81;5014796;28;20029;-76
2022/08/11 03:22:21;;;;;;;7.35;4.65;;;;;;;14.11;71.21;101182.81;4998423;28;20120;-78
2022/08/11 03:25:07;;;;;;;5.90;4.45;;;;;;;14.04;71.63;101188.97;4998354;28;20049;-78
2022/08/11 03:27:40;;;;;;;6.25;4.53;;;;;;;14.02;71.65;101191.56;5031516;28;20037;-78
2022/08/11 03:30:41;;;;;;;7.25;4.85;;;;;;;13.98;71.60;101194.59;5014725;28;20456;-78
2022/08/11 03:36:41;;;;;;;7.47;4.88;;;;;;;13.99;71.43;101176.09;5016005;28;20077;-79
2022/08/11 03:39:43;;;;;;;5.50;4.80;;;;;;;14.03;71.65;101178.78;5015533;28;20030;-79
2022/08/11 03:42:43;;;;;;;6.15;4.68;;;;;;;14.06;71.79;101191.34;5015866;28;20426;-78
2022/08/11 03:45:11;;;;;;;8.00;5.07;;;;;;;14.03;71.42;101189.47;5030869;28;20116;-78
2022/08/11 03:47:58;;;;;;;7.65;5.03;;;;;;;14.05;71.50;101187.69;5015633;28;20113;-78
2022/08/11 03:50:29;;;;;;;8.48;5.60;;;;;;;14.08;71.42;101183.84;5014030;28;20053;-77
2022/08/11 03:53:09;;;;;;;17.35;6.03;;;;;;;14.10;71.81;101172.63;5030726;28;20525;-76
2022/08/11 03:55:43;;;;;;;15.27;6.25;;;;;;;14.13;71.75;101179.47;5030566;28;20029;-76
2022/08/11 03:58:46;;;;;;;7.88;5.53;;;;;;;14.15;71.99;101179.75;5013909;28;20469;-77
2022/08/11 04:01:39;;;;;;;9.27;5.10;;;;;;;14.12;71.98;101178.66;5015278;28;20034;-77
2022/08/11 04:04:20;;;;;;;7.95;4.90;;;;;;;14.06;72.53;101180.66;5013896;28;20030;-76
2022/08/11 04:07:00;;;;;;;8.52;5.85;;;;;;;14.07;72.87;101178.56;5015561;28;20036;-78
2022/08/11 04:09:53;;;;;;;7.13;5.45;;;;;;;14.10;73.12;101183.31;5013755;28;20058;-78
2022/08/11 04:12:38;;;;;;;8.40;5.80;;;;;;;14.18;73.26;101175.91;5013721;28;20088;-78
2022/08/11 04:18:28;;;;;;;14.55;6.53;;;;;;;14.18;73.35;101181.66;5015116;28;20398;-78
2022/08/11 04:20:59;;;;;;;12.13;6.40;;;;;;;14.23;73.32;101187.47;5030008;28;20025;-77
2022/08/11 04:23:47;;;;;;;12.27;5.55;;;;;;;14.27;73.88;101179.44;5015020;28;20029;-78
2022/08/11 04:26:25;;;;;;;12.70;6.38;;;;;;;14.33;74.25;101177.44;5013431;28;20037;-79
2022/08/11 04:29:24;;;;;;;10.15;6.00;;;;;;;14.42;74.51;101176.56;5013601;28;20053;-80
2022/08/11 04:32:37;;;;;;;16.42;7.60;;;;;;;14.53;74.62;101179.59;5013529;28;20030;-80
2022/08/11 04:35:15;;;;;;;10.25;6.88;;;;;;;14.55;74.94;101174.13;4957523;28;20038;-80
2022/08/11 04:37:45;;;;;;;14.63;6.38;;;;;;;14.57;74.98;101170.78;5010928;28;20393;-79
2022/08/11 04:40:50;;;;;;;11.63;6.85;;;;;;;14.66;74.89;101182.19;5014964;28;20112;-80
2022/08/11 04:43:50;;;;;;;14.65;6.93;;;;;;;14.71;74.50;101190.09;5029640;28;20152;-80
2022/08/11 04:46:27;;;;;;;9.93;6.10;;;;;;;14.78;74.12;101192.53;5014471;28;20029;-80
2022/08/11 05:01:41;;;;;;;11.10;5.88;;;;;;;15.36;71.44;101188.66;5018337;28;20343;-79
2022/08/11 05:07:08;;;;;;;11.00;4.85;;;;;;;15.59;69.24;101189.72;5013826;28;20437;-80
2022/08/11 05:09:45;;;;;;;10.45;4.97;;;;;;;15.73;69.08;101194.59;5014388;28;20029;-82
2022/08/11 05:12:24;;;;;;;11.05;5.47;;;;;;;15.81;68.74;101192.06;5013943;28;20036;-80
2022/08/11 05:34:56;;;;;;;7.75;4.00;;;;;;;16.68;63.05;101221.44;5033688;28;20366;-81
2022/08/11 05:57:20;;;;;;;5.93;2.85;;;;;;;17.54;59.44;101235.34;5033311;28;20049;-75
2022/08/11 05:59:46;;;;;;;4.68;3.28;;;;;;;17.64;58.91;101230.91;5032305;28;20037;-78
2022/08/11 06:02:12;;;;;;;7.25;3.30;;;;;;;17.82;58.29;101230.47;5031877;28;20029;-75
2022/08/11 06:04:38;;;;;;;14.60;3.97;;;;;;;17.91;57.37;101232.34;5010736;28;20076;-75
2022/08/11 06:07:08;;;;;;;4.72;2.90;;;;;;;18.00;56.25;101232.09;5031797;28;20061;-75
2022/08/11 06:09:36;;;;;;;11.10;3.85;;;;;;;18.07;56.92;101233.69;5031959;28;20025;-75
2022/08/11 06:12:05;;;;;;;4.35;2.58;;;;;;;18.17;56.26;101250.28;5032194;28;20099;-76
2022/08/11 06:14:31;;;;;;;10.05;3.10;;;;;;;18.23;56.28;101245.25;5033533;28;20053;-76
2022/08/11 06:17:00;;;;;;;7.60;2.88;;;;;;;18.29;55.28;101239.50;5033182;28;20033;-75
2022/08/11 06:19:34;;;;;;;6.68;2.42;;;;;;;18.38;55.21;101250.84;5031904;28;20451;-76
2022/08/11 06:22:01;;;;;;;9.05;2.90;;;;;;;18.46;54.95;101248.22;5033170;28;20083;-77
2022/08/11 06:24:28;;;;;;;5.40;3.15;;;;;;;18.55;54.84;101245.06;5033205;28;20053;-77
2022/08/11 06:26:54;;;;;;;6.20;2.80;;;;;;;18.66;55.13;101237.19;5029768;28;20066;-76
2022/08/11 06:29:20;;;;;;;5.93;3.00;;;;;;;18.78;55.18;101240.84;5030142;28;20056;-75
2022/08/11 06:31:58;;;;;;;4.75;2.83;;;;;;;18.88;54.88;101238.44;5014919;28;20095;-77
2022/08/11 06:34:46;;;;;;;4.13;2.50;;;;;;;19.72;54.68;101244.81;5029979;28;20041;-77
2022/08/11 06:37:22;;;;;;;4.47;2.30;;;;;;;22.92;50.80;101234.41;5030234;28;20056;-77
2022/08/11 06:39:56;;;;;;;6.15;2.60;;;;;;;26.18;42.60;101231.13;5032626;28;20034;-77
2022/08/11 06:42:35;;;;;;;6.22;2.60;;;;;;;29.24;36.45;101237.84;5031292;28;20017;-75
2022/08/11 06:45:45;;;;;;;7.60;2.28;;;;;;;31.78;31.82;101253.66;5034024;28;20117;-75
2022/08/11 06:48:15;;;;;;;5.88;2.30;;;;;;;34.23;28.45;101254.44;5034375;28;20037;-75
2022/08/11 06:51:11;;;;;;;4.55;2.90;;;;;;;36.03;26.35;101256.28;5015090;28;20061;-77
2022/08/11 06:53:45;;;;;;;3.53;2.55;;;;;;;37.67;22.70;101265.56;5020486;28;20026;-74
2022/08/11 07:02:00;;;;;;;16.52;3.10;;;;;;;40.68;18.94;101284.31;5035437;28;20080;-72
2022/08/11 07:04:34;;;;;;;3.22;2.03;;;;;;;41.22;17.43;101283.50;5034845;28;20021;-72
2022/08/11 07:16:27;;;;;;;3.90;2.47;;;;;;;41.93;16.57;101298.16;5000516;28;20115;-73
2022/08/11 07:30:46;;;;;;;3.20;1.95;;;;;;;44.44;15.06;101278.72;5015620;28;20041;-76
2022/08/11 07:33:12;;;;;;;1.52;1.40;;;;;;;44.90;14.57;101270.06;5014566;28;20104;-76
2022/08/11 07:35:54;;;;;;;2.10;1.90;;;;;;;45.26;14.09;101296.50;5014581;28;20538;-73
2022/08/11 07:38:42;;;;;;;4.60;1.98;;;;;;;44.75;13.49;101293.09;5014607;28;20034;-74
2022/08/11 07:41:13;;;;;;;5.00;1.85;;;;;;;44.35;14.19;101292.09;5003781;28;20017;-75
2022/08/11 07:43:40;;;;;;;1.80;1.70;;;;;;;44.31;14.54;101286.72;5034038;28;20045;-74
2022/08/11 07:54:19;;;;;;;2.47;2.15;;;;;;;44.46;13.22;101290.84;5034050;28;20083;-74
2022/08/11 07:56:45;;;;;;;5.05;2.63;;;;;;;43.89;14.55;101286.34;5033633;28;20025;-73
2022/08/11 08:18:24;;;;;;;4.28;2.22;;;;;;;43.30;15.52;101256.00;5032740;28;20047;-74
2022/08/11 08:20:50;;;;;;;4.75;1.90;;;;;;;43.15;15.23;101260.84;5016659;28;20029;-73
2022/08/11 08:23:17;;;;;;;4.00;2.05;;;;;;;42.93;15.20;101254.16;5032973;28;20504;-71
2022/08/11 08:25:43;;;;;;;2.85;1.67;;;;;;;42.95;15.54;101245.94;5033137;28;20029;-73
2022/08/11 08:28:12;;;;;;;3.15;1.88;;;;;;;43.62;14.60;101250.94;5033007;28;20052;-73
2022/08/11 08:30:51;;;;;;;1.48;1.38;;;;;;;43.91;14.42;101244.22;5033357;28;20033;-73
2022/08/11 08:33:20;;;;;;;2.05;1.58;;;;;;;42.94;14.61;101241.41;5032976;28;20032;-71
2022/08/11 08:35:48;;;;;;;4.40;1.65;;;;;;;42.43;15.53;101229.22;5033254;28;20021;-73
2022/08/11 08:38:13;;;;;;;1.70;1.60;;;;;;;42.34;15.49;101236.47;5033083;28;20029;-73
2022/08/11 08:40:41;;;;;;;2.40;1.25;;;;;;;42.44;16.13;101234.56;5034156;28;20026;-72
2022/08/11 08:43:09;;;;;;;6.43;1.88;;;;;;;41.97;15.74;101223.19;5016452;28;20033;-72
2022/08/11 08:45:35;;;;;;;2.47;1.63;;;;;;;40.92;15.71;101234.28;5032816;28;20025;-73
2022/08/11 08:48:05;;;;;;;2.80;1.88;;;;;;;40.09;16.71;101216.66;5032686;28;20035;-71
2022/08/11 08:53:30;;;;;;;1.60;1.30;;;;;;;39.02;17.44;101202.88;5034184;28;20056;-73
2022/08/11 08:56:00;;;;;;;2.75;1.52;;;;;;;38.38;17.70;101203.53;5033219;28;20499;-74
2022/08/11 08:58:25;;;;;;;1.77;1.60;;;;;;;38.23;18.33;101190.13;5000327;28;20600;-72
2022/08/11 09:00:53;;;;;;;4.20;1.77;;;;;;;37.44;18.36;101194.22;5033892;28;20104;-73
2022/08/11 09:03:19;;;;;;;5.68;1.90;;;;;;;37.00;20.55;101181.44;5016134;28;20022;-72
2022/08/11 09:05:46;;;;;;;10.43;2.30;;;;;;;36.87;19.80;101188.13;5032741;28;20041;-73
2022/08/11 09:08:12;;;;;;;7.20;2.10;;;;;;;36.20;19.68;101183.56;5031791;28;20029;-73
2022/08/11 09:10:38;;;;;;;4.20;1.77;;;;;;;35.10;20.87;101176.19;5015944;28;20029;-74
2022/08/11 09:13:05;;;;;;;2.72;1.40;;;;;;;35.11;20.69;101177.72;5034073;28;20021;-72
2022/08/11 09:15:31;;;;;;;4.20;1.63;;;;;;;35.79;20.50;101181.19;5019865;28;20034;-73
2022/08/11 09:18:04;;;;;;;4.35;1.55;;;;;;;36.56;20.38;101175.97;5014094;28;20053;-76
2022/08/11 09:20:35;;;;;;;6.05;1.83;;;;;;;36.69;19.46;101178.16;4997437;28;20057;-81
2022/08/11 09:28:44;;;;;;;13.73;2.95;;;;;;;35.49;19.45;101173.38;5013238;28;20048;-77
2022/08/11 09:31:11;;;;;;;27.20;4.45;;;;;;;35.19;20.18;101176.06;4996217;28;20033;-76
2022/08/11 09:33:37;;;;;;;4.60;1.63;;;;;;;35.04;20.16;101188.44;5012574;28;20092;-77
2022/08/11 09:40:27;;;;;;;16.50;3.08;;;;;;;34.45;20.68;101174.22;5012654;28;20168;-76
2022/08/11 09:40:27;;;;;;;10.25;2.67;;;;;;;34.72;20.47;101172.31;5012619;28;20050;-78
2022/08/11 09:41:39;;;;;;;4.13;1.23;;;;;;;34.28;21.38;101173.16;5012492;28;20025;-79
2022/08/11 09:46:51;;;;;;;5.15;1.23;;;;;;;33.51;21.77;101170.16;5013110;28;20044;-82
2022/08/11 09:49:18;;;;;;;4.28;1.70;;;;;;;32.99;21.54;101167.22;5012638;28;20049;-81
2022/08/11 09:51:44;;;;;;;6.78;1.55;;;;;;;33.07;22.87;101179.66;5012726;28;20025;-81
2022/08/11 09:54:10;;;;;;;1.48;1.35;;;;;;;33.10;22.87;101157.63;5012653;28;20199;-80
2022/08/11 09:59:21;;;;;;;20.95;3.22;;;;;;;33.01;22.54;101173.28;5012111;28;20087;-82
2022/08/11 10:01:51;;;;;;;8.68;3.55;;;;;;;32.76;23.07;101161.13;5012047;28;20022;-82
2022/08/11 10:04:33;;;;;;;11.65;2.25;;;;;;;32.61;23.30;101147.44;5011660;28;20049;-82
2022/08/11 10:07:02;;;;;;;12.73;3.17;;;;;;;32.39;23.59;101152.53;5010353;28;20026;-82
2022/08/11 10:09:35;;;;;;;5.38;1.42;;;;;;;31.78;23.53;101153.94;5010256;28;20026;-83
2022/08/11 10:12:04;;;;;;;1.83;1.20;;;;;;;31.06;23.25;101149.03;5010260;28;20121;-83
2022/08/11 10:17:16;;;;;;;2.10;1.10;;;;;;;30.00;25.20;101136.78;5010445;28;20521;-82
2022/08/11 10:19:43;;;;;;;1.67;1.25;;;;;;;29.75;25.11;101126.53;5014240;28;20482;-83
2022/08/11 10:27:38;;;;;;;1.80;1.30;;;;;;;29.63;25.44;101126.28;5017500;28;20037;-82
2022/08/11 10:35:34;;;;;;;2.03;1.40;;;;;;;29.59;25.33;101112.00;5017189;28;20040;-82
2022/08/11 10:37:59;;;;;;;2.08;1.00;;;;;;;29.86;25.43;101114.97;4999389;28;20029;-83
2022/08/11 10:40:25;;;;;;;1.73;1.00;;;;;;;30.10;25.52;101110.31;5016216;28;20026;-83
2022/08/11 10:43:05;;;;;;;1.75;1.00;;;;;;;30.32;25.08;101123.91;5017425;28;20032;-84
2022/08/11 10:48:24;;;;;;;0.85;0.80;;;;;;;30.18;24.72;101113.94;5015666;28;20100;-83
2022/08/11 10:59:21;;;;;;;3.65;1.20;;;;;;;29.33;25.86;101103.09;5016109;28;20095;-84
2022/08/11 11:01:46;;;;;;;1.63;0.98;;;;;;;29.29;26.40;101098.41;5015807;28;20494;-83
2022/08/11 11:04:13;;;;;;;2.78;0.70;;;;;;;29.28;26.78;101104.94;5015934;28;20022;-83
2022/08/11 11:06:57;;;;;;;1.60;1.05;;;;;;;29.23;25.87;101100.09;5016083;28;20112;-85
2022/08/11 11:09:46;;;;;;;4.65;0.95;;;;;;;29.06;26.04;101094.19;5016267;28;20034;-85
2022/08/11 11:18:23;;;;;;;1.17;0.82;;;;;;;28.40;25.82;101099.47;5015671;28;20048;-84
2022/08/11 11:20:58;;;;;;;2.70;1.25;;;;;;;28.28;26.34;101091.75;5015603;28;20033;-83
2022/08/11 11:23:37;;;;;;;25.73;3.75;;;;;;;27.99;26.43;101095.09;5015764;28;20029;-82
2022/08/11 11:26:13;;;;;;;8.52;1.27;;;;;;;27.66;26.37;101084.66;5015726;28;20052;-82
2022/08/11 11:28:57;;;;;;;2.90;1.15;;;;;;;27.59;27.17;101086.28;5015095;28;20038;-83
2022/08/11 11:31:34;;;;;;;0.63;0.60;;;;;;;27.51;25.98;101085.53;5014696;28;20034;-84
2022/08/11 11:34:04;;;;;;;6.32;4.97;;;;;;;27.55;26.04;101076.34;5016599;28;20029;-84
2022/08/11 11:36:38;;;;;;;1.55;0.52;;;;;;;27.43;26.47;101070.13;5016054;28;20041;-84
2022/08/11 11:39:04;;;;;;;2.78;1.10;;;;;;;27.24;27.38;101074.88;5017682;28;20026;-83
2022/08/11 11:41:30;;;;;;;1.38;0.80;;;;;;;26.74;27.96;101083.44;5015730;28;20080;-83
2022/08/11 11:43:57;;;;;;;2.35;1.00;;;;;;;26.36;27.98;101092.22;5015514;28;20475;-83
2022/08/11 11:46:26;;;;;;;4.05;1.20;;;;;;;26.09;28.04;101068.34;4999163;28;20029;-85
2022/08/11 11:48:56;;;;;;;1.83;1.20;;;;;;;26.25;28.64;101069.16;5015422;28;20042;-85
2022/08/11 11:51:22;;;;;;;2.40;0.93;;;;;;;26.43;27.71;101059.19;4999612;28;20379;-85
2022/08/11 11:53:49;;;;;;;3.33;0.85;;;;;;;26.56;27.13;101055.28;5000033;28;20144;-84
2022/08/11 11:56:14;;;;;;;6.43;1.10;;;;;;;26.47;27.51;101053.72;5016247;28;20036;-83
2022/08/11 12:01:24;;;;;;;0.95;0.90;;;;;;;26.49;27.25;101044.31;5017951;28;20045;-85
2022/08/11 12:03:52;;;;;;;1.52;0.70;;;;;;;26.48;27.47;101048.63;5016809;28;20437;-85
2022/08/11 12:06:19;;;;;;;2.88;0.82;;;;;;;26.52;27.69;101035.13;4999782;28;20026;-85
2022/08/11 12:08:48;;;;;;;9.32;2.55;;;;;;;26.65;27.63;101034.94;5017610;28;20022;-85
2022/08/11 12:14:01;;;;;;;5.47;1.30;;;;;;;26.77;27.25;101021.41;5016444;28;20032;-85
2022/08/11 12:16:28;;;;;;;1.65;1.20;;;;;;;27.00;27.22;101027.22;5016894;28;20057;-85
2022/08/11 12:18:56;;;;;;;1.23;0.70;;;;;;;27.53;26.19;101018.19;4998802;28;20492;-87
2022/08/11 12:21:22;;;;;;;8.90;2.33;;;;;;;27.99;25.41;101024.56;5015612;28;20033;-86
2022/08/11 12:29:16;;;;;;;2.38;1.42;;;;;;;27.91;26.25;101020.09;5015173;28;20060;-84
2022/08/11 12:31:42;;;;;;;3.90;1.25;;;;;;;27.45;26.42;101010.81;5015007;28;20493;-85
2022/08/11 12:34:14;;;;;;;5.85;1.30;;;;;;;27.04;26.84;101000.41;4997735;28;20060;-85
2022/08/11 12:36:44;;;;;;;;;;;;;;;27.01;27.61;101019.22;5014838;28;20376;-86
2022/08/11 12:39:11;;;;;;;4.57;1.75;;;;;;;27.07;26.18;101028.56;5014237;28;20060;-86
2022/08/11 12:47:12;;;;;;;2.58;0.75;;;;;;;27.83;25.54;101005.44;5013850;28;20049;-86
2022/08/11 12:52:34;;;;;;;0.65;0.65;;;;;;;28.13;24.01;101003.66;5015736;28;20040;-85
2022/08/11 12:58:14;;;;;;;9.77;1.92;;;;;;;28.12;25.02;100993.28;5016284;28;20026;-85
2022/08/11 12:58:17;;;;;;;4.07;1.17;;;;;;;27.68;25.88;100985.00;5014912;28;20022;-85
2022/08/11 13:06:12;;;;;;;0.73;0.73;;;;;;;26.65;27.54;100985.06;5014790;28;20049;-84
2022/08/11 13:08:39;;;;;;;1.85;1.08;;;;;;;26.55;27.19;100975.31;5014001;28;20125;-85
2022/08/11 13:13:51;;;;;;;3.28;1.40;;;;;;;26.42;28.13;100983.56;5014537;28;20036;-85
2022/08/11 13:16:16;;;;;;;1.58;1.13;;;;;;;26.43;28.22;100974.16;5013324;28;20030;-84
2022/08/11 13:18:42;;;;;;;1.20;1.00;;;;;;;26.33;27.07;100968.13;5014530;28;20029;-85
2022/08/11 13:21:12;;;;;;;2.55;0.90;;;;;;;26.41;27.54;100968.13;5013725;28;20099;-86
2022/08/11 13:23:39;;;;;;;1.58;1.25;;;;;;;26.45;28.20;100961.88;5015002;28;20057;-84
2022/08/11 13:26:06;;;;;;;2.38;1.20;;;;;;;26.44;28.28;100952.28;5014506;28;20036;-85
2022/08/11 13:28:35;;;;;;;1.17;0.80;;;;;;;26.42;28.27;100966.00;5013434;28;20025;-87
2022/08/11 13:31:10;;;;;;;8.05;1.52;;;;;;;26.48;28.95;100954.81;4997263;28;20033;-85
2022/08/11 13:33:43;;;;;;;2.15;0.60;;;;;;;26.41;28.72;100959.34;5014649;28;20037;-84
2022/08/11 13:36:10;;;;;;;2.25;1.25;;;;;;;26.42;28.17;100957.19;4997568;28;20028;-85
2022/08/11 13:38:36;;;;;;;3.60;0.93;;;;;;;26.48;28.01;100954.81;5003971;28;20455;-85
2022/08/11 13:41:36;;;;;;;2.95;1.02;;;;;;;26.65;28.19;100952.81;5014387;28;20018;-86
2022/08/11 13:43:47;;;;;;;1.83;0.80;;;;;;;26.67;28.54;100958.06;5013966;28;20510;-86
2022/08/11 13:46:19;;;;;;;2.75;1.45;;;;;;;26.72;28.64;100940.28;4996320;28;20057;-85
2022/08/11 13:48:45;;;;;;;4.90;1.30;;;;;;;26.72;29.20;100924.84;4997650;28;20046;-85
2022/08/11 13:51:30;;;;;;;1.58;1.42;;;;;;;26.75;28.06;100938.34;4997505;28;20026;-84
2022/08/11 13:54:02;;;;;;;1.52;0.90;;;;;;;26.84;27.98;100931.06;5015313;28;20474;-85
2022/08/11 13:56:28;;;;;;;2.92;1.33;;;;;;;26.89;27.77;100930.06;5017627;28;20026;-84
2022/08/11 13:58:55;;;;;;;2.17;1.10;;;;;;;26.86;27.55;100913.66;5000920;28;20049;-85
2022/08/11 14:01:21;;;;;;;1.20;0.82;;;;;;;26.98;27.55;100927.28;5001632;28;20030;-85
2022/08/11 14:03:48;;;;;;;2.67;1.00;;;;;;;26.96;27.20;100908.72;5018512;28;20025;-86
2022/08/11 14:06:16;;;;;;;1.85;0.85;;;;;;;27.06;26.75;100918.44;5001189;28;20084;-84
2022/08/11 14:08:42;;;;;;;1.65;1.08;;;;;;;27.16;26.66;100920.13;5001236;28;20065;-86
2022/08/11 14:13:52;;;;;;;0.80;0.80;;;;;;;27.21;26.58;100909.53;5019184;28;20550;-85
2022/08/11 14:16:27;;;;;;;2.78;0.82;;;;;;;27.27;26.56;100915.16;5001090;28;20089;-85
2022/08/11 14:18:56;;;;;;;7.78;1.20;;;;;;;27.21;26.95;100912.44;5018097;28;20025;-85
2022/08/11 14:24:10;;;;;;;1.17;0.80;;;;;;;26.97;26.66;100902.22;5019200;28;20033;-85
2022/08/11 14:26:37;;;;;;;1.42;1.13;;;;;;;26.83;27.03;100906.81;5001270;28;20048;-85
2022/08/11 14:29:13;;;;;;;1.65;1.00;;;;;;;26.89;27.02;100903.66;5000503;28;20364;-86
2022/08/11 14:31:45;;;;;;;1.73;0.68;;;;;;;26.90;26.37;100890.56;5017435;28;20030;-86
2022/08/11 14:34:13;;;;;;;1.73;0.93;;;;;;;26.86;26.42;100870.44;5017266;28;20105;-86
2022/08/11 14:36:43;;;;;;;5.80;0.80;;;;;;;27.12;26.15;100895.50;5000190;28;20022;-85
2022/08/11 14:39:16;;;;;;;1.70;0.80;;;;;;;27.31;26.35;100895.78;5016107;28;20017;-84
2022/08/11 14:47:14;;;;;;;3.70;1.08;;;;;;;27.64;25.57;100893.59;5017158;28;20064;-86
2022/08/11 14:49:41;;;;;;;1.95;0.80;;;;;;;27.70;25.70;100891.16;5016344;28;20069;-85
2022/08/11 14:52:14;;;;;;;4.13;1.00;;;;;;;27.81;26.10;100884.03;5018470;28;20081;-85
2022/08/11 14:57:27;;;;;;;1.45;0.98;;;;;;;27.86;26.17;100883.00;5020607;28;20049;-85
2022/08/11 14:59:54;;;;;;;2.38;0.95;;;;;;;27.87;25.94;100896.31;5026693;28;20022;-85
2022/08/11 15:05:05;;;;;;;2.55;1.05;;;;;;;27.81;25.58;100887.75;5036114;28;20029;-86
2022/08/11 15:07:31;;;;;;;2.97;1.00;;;;;;;27.37;26.71;100886.75;5034902;28;20046;-87
2022/08/11 15:09:59;;;;;;;2.65;1.20;;;;;;;26.93;27.00;100901.88;5010386;28;20021;-86
2022/08/11 15:12:24;;;;;;;5.28;1.13;;;;;;;26.43;27.96;100900.88;5019713;28;20045;-85
2022/08/11 15:17:35;;;;;;;3.40;1.67;;;;;;;25.65;29.41;100897.88;5029626;28;20129;-86
2022/08/11 15:25:37;;;;;;;0.85;0.73;;;;;;;25.12;30.17;100891.16;5030310;28;20173;-85
2022/08/11 15:39:12;;;;;;;2.58;1.00;;;;;;;25.54;30.04;100880.69;5017277;28;20100;-85
2022/08/11 15:47:14;;;;;;;3.60;1.20;;;;;;;25.97;28.61;100878.91;5016225;28;19916;-84
2022/08/11 15:49:41;;;;;;;0.90;0.80;;;;;;;25.90;28.93;100871.69;4999229;28;20379;-85
2022/08/11 15:52:12;;;;;;;4.10;0.90;;;;;;;25.93;29.22;100859.56;5016203;28;20037;-85
2022/08/11 15:54:43;;;;;;;2.70;0.88;;;;;;;26.14;28.66;100885.72;5018263;28;20029;-85
2022/08/11 16:04:09;;;;;;;2.60;0.90;;;;;;;26.33;28.41;100873.56;4999987;28;20021;-85
2022/08/11 16:05:21;;;;;;;0.82;0.77;;;;;;;25.95;28.23;100861.13;5014663;28;20080;-86
2022/08/11 16:07:48;;;;;;;1.02;0.80;;;;;;;25.79;28.68;100893.38;5014715;28;20382;-85
2022/08/11 16:10:22;;;;;;;1.08;0.77;;;;;;;25.46;29.18;100886.53;5016101;28;20104;-86
2022/08/11 16:18:22;;;;;;;5.10;0.88;;;;;;;25.98;29.20;100869.50;5019630;28;20072;-85
2022/08/11 16:20:50;;;;;;;2.33;0.90;;;;;;;28.37;26.97;100879.34;5018882;28;20496;-85